Erie, Minnesota
Current Conditions -  °F | °C
As of 6:35 AM on Saturday 25 Oct 2014 (Local Time) from KTVF Reporting Station
Clear Clear  
Wind Chill: 31°   Ceiling: Unl
Heat Index: 37°   Visibility: 10mi
Dew Point: 30°   Wind: 9mph
Humidity: 75%   Direction: 240°WSW
Pressure: 29.98"   Gusts: NA
Location:  48.0638°N, 95.6851°W
Report Text: KTVF 251135Z AUTO 24008KT 10SM CLR 03/M01 A2998 RMK AO1
Loading
Personal Weather Stations






























Interactive Weather Map New forecast layout! Learn more

10-Day Weather Forecast

Advertisements
Track Severe Weather on mobile